Time;durP1;ratioP1;P1;durP2;ratioP2;P2;SDS_P1;SDS_P2;PMS_P1;PMS_P2;Temp;Humidity;BMP_temperature;BMP_pressure;BME280_temperature;BME280_humidity;BME280_pressure;Samples;Min_cycle;Max_cycle;Signal;HPM_P1;HPM_P2
2024/01/18 09:26:35;;;;;;;7.87;2.73;;;-0.90;99.90;;;;;;4033469;23;20230;-73
2024/01/18 09:29:02;;;;;;;6.43;2.97;;;-0.80;99.90;;;;;;4918089;29;20300;-74
2024/01/18 09:31:29;;;;;;;9.67;3.67;;;-0.70;99.90;;;;;;4918168;29;20244;-74
2024/01/18 09:33:55;;;;;;;10.17;4.00;;;-0.70;99.90;;;;;;4917925;29;20222;-74
2024/01/18 09:36:22;;;;;;;6.60;3.27;;;-0.50;99.90;;;;;;4918303;29;20209;-74
2024/01/18 09:38:49;;;;;;;8.23;3.57;;;-0.40;99.90;;;;;;4917996;29;20209;-77
2024/01/18 09:41:18;;;;;;;6.73;2.90;;;-0.30;99.90;;;;;;4918326;29;20589;-73
2024/01/18 09:43:46;;;;;;;7.37;3.87;;;-0.10;99.90;;;;;;4917726;29;20573;-74
2024/01/18 09:46:14;;;;;;;6.97;3.73;;;0.00;99.90;;;;;;4918187;29;20238;-77
2024/01/18 09:48:42;;;;;;;7.50;3.20;;;0.20;99.90;;;;;;4917837;29;20572;-75
2024/01/18 09:51:13;;;;;;;6.37;3.47;;;0.20;99.90;;;;;;4918021;29;20205;-75
2024/01/18 09:53:44;;;;;;;10.47;3.57;;;0.30;99.90;;;;;;4917990;29;20232;-75
2024/01/18 09:56:21;;;;;;;6.37;3.27;;;0.40;99.90;;;;;;4917761;29;20217;-75
2024/01/18 09:58:49;;;;;;;9.47;3.40;;;0.60;99.90;;;;;;4918142;29;20304;-76
2024/01/18 10:01:20;;;;;;;6.77;2.87;;;0.70;99.90;;;;;;4917957;29;20639;-76
2024/01/18 10:03:47;;;;;;;10.50;3.70;;;0.80;99.90;;;;;;4917693;29;20232;-77
2024/01/18 10:06:14;;;;;;;9.23;3.17;;;1.10;99.90;;;;;;4917652;29;20312;-75
2024/01/18 10:08:41;;;;;;;6.23;3.50;;;1.20;99.90;;;;;;4917969;29;20214;-76
2024/01/18 10:11:08;;;;;;;6.50;2.77;;;1.40;99.90;;;;;;4917623;29;20212;-75
2024/01/18 10:13:51;;;;;;;6.93;3.30;;;1.50;99.90;;;;;;4917151;29;20256;-76
2024/01/18 10:16:29;;;;;;;8.20;3.17;;;1.60;99.90;;;;;;4917610;29;20308;-74
2024/01/18 10:18:56;;;;;;;6.00;2.47;;;1.80;99.90;;;;;;4917491;29;20213;-75
2024/01/18 10:21:24;;;;;;;4.90;1.93;;;2.10;99.90;;;;;;4917818;29;20209;-74
2024/01/18 10:23:52;;;;;;;7.77;2.03;;;2.40;99.90;;;;;;4917494;29;20234;-76
2024/01/18 10:26:19;;;;;;;4.40;2.27;;;2.80;99.90;;;;;;4917181;29;20248;-76
2024/01/18 10:28:46;;;;;;;3.10;1.90;;;2.90;99.90;;;;;;4917299;29;20687;-76
2024/01/18 10:31:14;;;;;;;3.87;2.47;;;3.10;99.90;;;;;;4917239;29;20216;-76
2024/01/18 10:33:41;;;;;;;3.50;2.07;;;3.10;99.90;;;;;;4917320;29;20249;-75
2024/01/18 10:36:09;;;;;;;6.23;2.37;;;3.20;99.90;;;;;;4917045;29;20215;-74
2024/01/18 10:38:38;;;;;;;4.50;2.67;;;3.20;99.90;;;;;;4917265;29;20209;-76
2024/01/18 10:41:06;;;;;;;4.80;2.00;;;3.30;99.90;;;;;;4917469;29;20217;-76
2024/01/18 10:43:34;;;;;;;4.17;2.37;;;3.50;99.90;;;;;;4917455;29;20229;-76
2024/01/18 10:46:01;;;;;;;3.43;2.10;;;3.50;99.90;;;;;;4917015;29;20304;-75
2024/01/18 10:48:30;;;;;;;2.20;1.60;;;3.40;99.90;;;;;;4917040;29;20209;-76
2024/01/18 10:50:58;;;;;;;5.33;1.87;;;3.30;99.90;;;;;;4916871;29;20570;-76
2024/01/18 10:53:26;;;;;;;6.67;1.67;;;3.30;99.90;;;;;;4916829;29;20328;-75
2024/01/18 10:55:53;;;;;;;7.83;1.97;;;3.30;99.90;;;;;;4917075;29;20304;-76
2024/01/18 10:58:20;;;;;;;4.90;2.00;;;3.40;99.90;;;;;;4916743;29;20296;-73
2024/01/18 11:00:47;;;;;;;3.70;1.90;;;3.40;99.90;;;;;;4916861;29;20316;-73
2024/01/18 11:03:16;;;;;;;3.43;1.70;;;3.30;99.90;;;;;;4916617;29;20720;-75
2024/01/18 11:05:46;;;;;;;10.73;1.80;;;3.20;99.90;;;;;;4916703;29;20568;-74
2024/01/18 11:08:14;;;;;;;2.73;1.80;;;3.20;99.90;;;;;;4916785;29;20233;-74
2024/01/18 11:10:41;;;;;;;3.87;1.50;;;3.40;99.90;;;;;;4916849;29;20210;-73
2024/01/18 11:13:09;;;;;;;4.20;1.77;;;3.50;99.90;;;;;;4916602;29;20240;-74
2024/01/18 11:15:37;;;;;;;3.90;1.83;;;3.50;99.90;;;;;;4916620;29;20550;-76
2024/01/18 11:18:10;;;;;;;6.40;1.60;;;3.50;99.90;;;;;;4916514;29;20205;-76
2024/01/18 11:21:04;;;;;;;2.33;1.23;;;3.50;99.90;;;;;;4916939;29;20214;-76
2024/01/18 11:23:34;;;;;;;4.93;1.43;;;3.50;99.90;;;;;;4916523;29;20229;-76
2024/01/18 11:26:04;;;;;;;2.87;1.50;;;3.70;99.90;;;;;;4916410;29;20596;-76
2024/01/18 11:28:31;;;;;;;5.03;1.70;;;3.70;99.90;;;;;;4916466;29;20260;-73
2024/01/18 11:30:59;;;;;;;3.37;1.80;;;3.60;99.90;;;;;;4916467;29;20599;-74
2024/01/18 11:33:26;;;;;;;2.83;1.40;;;3.60;99.90;;;;;;4916717;29;20234;-75
2024/01/18 11:35:56;;;;;;;6.37;1.63;;;3.60;99.90;;;;;;4916153;29;20691;-75
2024/01/18 11:38:25;;;;;;;4.83;3.00;;;3.70;99.90;;;;;;4915836;29;20213;-75
2024/01/18 11:40:53;;;;;;;3.00;1.93;;;3.80;99.90;;;;;;4916421;29;20220;-75
2024/01/18 11:43:21;;;;;;;3.30;1.80;;;3.90;99.90;;;;;;4917373;29;20277;-73
2024/01/18 11:45:50;;;;;;;2.90;1.30;;;4.00;99.90;;;;;;4920620;29;20205;-75
2024/01/18 11:48:18;;;;;;;7.47;2.13;;;4.20;99.90;;;;;;4920241;29;20241;-75
2024/01/18 11:50:45;;;;;;;4.23;1.70;;;4.40;99.90;;;;;;4920245;29;20206;-76
2024/01/18 11:53:15;;;;;;;4.63;1.87;;;4.60;99.90;;;;;;4920138;29;20231;-75
2024/01/18 11:55:46;;;;;;;15.70;2.27;;;4.80;99.90;;;;;;4920014;29;20304;-75
2024/01/18 11:58:13;;;;;;;3.03;1.13;;;5.10;99.90;;;;;;4919927;29;20214;-76
2024/01/18 12:00:41;;;;;;;4.53;1.63;;;5.30;99.90;;;;;;4920349;29;20616;-74
2024/01/18 12:03:12;;;;;;;2.70;1.37;;;5.60;99.90;;;;;;4920299;29;20321;-74
2024/01/18 12:05:40;;;;;;;3.50;2.53;;;5.60;99.90;;;;;;4920098;29;20630;-75
2024/01/18 12:08:08;;;;;;;3.27;1.60;;;5.60;99.90;;;;;;4920176;29;20331;-74
2024/01/18 12:10:37;;;;;;;8.30;1.33;;;5.50;99.90;;;;;;4919804;29;20280;-74
2024/01/18 12:13:05;;;;;;;2.33;1.30;;;5.30;99.90;;;;;;4919733;29;20230;-75
2024/01/18 12:15:32;;;;;;;3.57;1.63;;;5.10;99.90;;;;;;4920096;29;20210;-72
2024/01/18 12:17:59;;;;;;;3.10;2.20;;;5.00;99.90;;;;;;4919646;29;20210;-74
2024/01/18 12:20:26;;;;;;;11.13;3.73;;;4.80;99.90;;;;;;4919434;29;20206;-75
2024/01/18 12:22:53;;;;;;;4.70;2.13;;;4.60;99.90;;;;;;4919540;29;20233;-74
2024/01/18 12:25:20;;;;;;;4.83;1.83;;;4.50;99.90;;;;;;4919783;29;20256;-74
2024/01/18 12:27:49;;;;;;;7.60;1.70;;;4.40;99.90;;;;;;4919116;29;20241;-74
2024/01/18 12:30:16;;;;;;;5.40;1.90;;;4.40;99.90;;;;;;4919606;29;20300;-74
2024/01/18 12:32:43;;;;;;;4.87;1.37;;;4.50;99.90;;;;;;4919696;29;20272;-74
2024/01/18 12:35:10;;;;;;;3.73;1.60;;;4.40;99.90;;;;;;4919490;29;20220;-74
2024/01/18 12:37:39;;;;;;;2.60;1.43;;;4.50;99.90;;;;;;4919238;29;20214;-74
2024/01/18 12:40:10;;;;;;;4.37;1.60;;;4.60;99.90;;;;;;4919663;29;20249;-74
2024/01/18 12:42:38;;;;;;;6.10;1.67;;;4.50;99.90;;;;;;4919266;29;20665;-73
2024/01/18 12:45:07;;;;;;;4.83;2.40;;;4.40;99.90;;;;;;4919489;29;20213;-75
2024/01/18 12:47:36;;;;;;;2.07;1.20;;;4.30;99.90;;;;;;4914409;29;20268;-74
2024/01/18 12:50:07;;;;;;;5.10;1.63;;;4.20;99.90;;;;;;4917558;29;20297;-77
2024/01/18 12:52:36;;;;;;;2.67;1.40;;;4.20;99.90;;;;;;4913227;29;20213;-73
2024/01/18 12:55:04;;;;;;;4.80;1.50;;;4.00;99.90;;;;;;4916167;29;20217;-74
2024/01/18 12:57:31;;;;;;;4.57;1.63;;;4.00;99.90;;;;;;4917281;29;20756;-80
2024/01/18 12:59:58;;;;;;;4.23;1.63;;;4.10;99.90;;;;;;4918045;29;20214;-75
2024/01/18 13:02:26;;;;;;;2.43;1.57;;;4.00;99.90;;;;;;4917247;29;20237;-75
2024/01/18 13:04:53;;;;;;;2.23;1.40;;;4.30;99.90;;;;;;4918290;29;20684;-75
2024/01/18 13:07:20;;;;;;;4.10;1.47;;;4.10;99.90;;;;;;4917508;29;20229;-74
2024/01/18 13:09:48;;;;;;;3.53;1.23;;;4.10;99.90;;;;;;4917459;29;20699;-81
2024/01/18 13:12:16;;;;;;;2.67;1.47;;;4.10;99.90;;;;;;4917110;29;20288;-74
2024/01/18 13:14:46;;;;;;;3.20;1.67;;;4.00;99.90;;;;;;4916909;29;20588;-75
2024/01/18 13:17:17;;;;;;;2.67;1.57;;;3.90;99.90;;;;;;4917550;29;20205;-75
2024/01/18 13:19:45;;;;;;;4.27;1.57;;;4.00;99.90;;;;;;4918216;29;20210;-75
2024/01/18 13:22:12;;;;;;;1.87;1.23;;;4.10;99.90;;;;;;4918317;29;20209;-75
2024/01/18 13:24:39;;;;;;;5.83;1.70;;;4.20;99.90;;;;;;4918248;29;20394;-75
2024/01/18 13:27:06;;;;;;;3.47;1.53;;;4.20;99.90;;;;;;4917807;29;20265;-74
2024/01/18 13:29:33;;;;;;;3.70;1.33;;;4.10;99.90;;;;;;4918066;29;20301;-75
2024/01/18 13:32:00;;;;;;;1.93;1.07;;;4.10;99.90;;;;;;4918417;29;20206;-74
2024/01/18 13:34:29;;;;;;;1.73;1.00;;;4.30;99.90;;;;;;4918601;29;20289;-76
2024/01/18 13:36:57;;;;;;;2.17;0.90;;;4.30;99.90;;;;;;4918149;29;20205;-74
2024/01/18 13:39:24;;;;;;;2.03;0.77;;;4.20;99.90;;;;;;4918191;29;20691;-75
2024/01/18 13:41:51;;;;;;;2.60;0.80;;;4.20;99.90;;;;;;4917651;29;20224;-75
2024/01/18 13:44:18;;;;;;;2.07;0.47;;;4.40;99.90;;;;;;4917959;29;20230;-74
2024/01/18 13:46:45;;;;;;;1.23;0.70;;;4.30;99.90;;;;;;4918065;29;20229;-75
2024/01/18 13:49:12;;;;;;;4.97;0.73;;;4.30;99.90;;;;;;4917856;29;20237;-74
2024/01/18 13:51:38;;;;;;;1.20;0.50;;;4.30;99.90;;;;;;4917652;29;20660;-74
2024/01/18 13:54:07;;;;;;;0.70;0.57;;;4.30;99.90;;;;;;4917890;29;20250;-75
2024/01/18 13:56:34;;;;;;;0.77;0.50;;;4.20;99.90;;;;;;4917895;29;20568;-75
2024/01/18 13:59:01;;;;;;;2.30;0.50;;;4.20;99.90;;;;;;4918207;29;20213;-75
2024/01/18 14:01:28;;;;;;;0.60;0.50;;;4.20;99.90;;;;;;4917955;29;20300;-75
2024/01/18 14:03:54;;;;;;;1.03;0.40;;;4.10;99.90;;;;;;4918343;29;20321;-75
2024/01/18 14:06:22;;;;;;;1.13;0.47;;;4.10;99.90;;;;;;4917358;29;20213;-75
2024/01/18 14:08:49;;;;;;;4.30;0.83;;;4.10;99.90;;;;;;4917546;29;20265;-73
2024/01/18 14:11:17;;;;;;;6.47;1.17;;;4.10;99.90;;;;;;4917705;29;20300;-76
2024/01/18 14:13:44;;;;;;;5.33;1.07;;;4.00;99.90;;;;;;4917734;29;20320;-76
2024/01/18 14:16:12;;;;;;;0.40;0.30;;;4.00;99.90;;;;;;4917615;29;20209;-75
2024/01/18 14:18:39;;;;;;;0.93;0.60;;;4.00;99.90;;;;;;4917753;29;20205;-74
2024/01/18 14:21:07;;;;;;;1.10;0.80;;;3.90;99.90;;;;;;4917699;29;20293;-75
2024/01/18 14:23:35;;;;;;;2.83;0.60;;;4.00;99.90;;;;;;4917419;29;20236;-76
2024/01/18 14:26:02;;;;;;;3.60;0.50;;;4.10;99.90;;;;;;4917590;29;20217;-74
2024/01/18 14:28:31;;;;;;;2.33;0.40;;;4.10;99.90;;;;;;4917450;29;20245;-75
2024/01/18 14:30:57;;;;;;;2.23;0.63;;;4.00;99.90;;;;;;4920350;29;20308;-73
2024/01/18 14:33:24;;;;;;;1.03;0.47;;;4.00;99.90;;;;;;4919595;29;20321;-75
2024/01/18 14:35:51;;;;;;;0.77;0.53;;;4.00;99.90;;;;;;4918973;29;20213;-74
2024/01/18 14:38:18;;;;;;;2.97;0.60;;;4.00;99.90;;;;;;4921079;29;20225;-74
2024/01/18 14:40:45;;;;;;;1.43;0.47;;;3.90;99.90;;;;;;4921998;29;20274;-76
2024/01/18 14:43:12;;;;;;;0.57;0.37;;;3.90;99.90;;;;;;4919175;29;20240;-75
2024/01/18 14:45:41;;;;;;;0.57;0.47;;;3.90;99.90;;;;;;4917156;29;20213;-75
2024/01/18 14:48:10;;;;;;;6.23;0.40;;;4.00;99.90;;;;;;4916858;29;20237;-76
2024/01/18 14:50:37;;;;;;;1.27;0.60;;;4.00;99.90;;;;;;4917042;29;20213;-76
2024/01/18 14:53:04;;;;;;;0.97;0.40;;;3.90;99.90;;;;;;4916917;29;20236;-75
2024/01/18 14:55:31;;;;;;;4.13;0.90;;;3.90;99.90;;;;;;4916877;29;20748;-75
2024/01/18 14:57:58;;;;;;;0.50;0.40;;;4.10;99.90;;;;;;4916944;29;20219;-76
2024/01/18 15:00:26;;;;;;;0.43;0.30;;;4.00;99.90;;;;;;4917001;29;20305;-76
2024/01/18 15:02:54;;;;;;;0.47;0.37;;;3.90;99.90;;;;;;4916929;29;20233;-75
2024/01/18 15:05:24;;;;;;;2.00;0.40;;;4.00;99.90;;;;;;4916753;29;20309;-75
2024/01/18 15:07:51;;;;;;;2.73;0.57;;;4.10;99.90;;;;;;4916971;29;20566;-74
2024/01/18 15:10:18;;;;;;;1.93;0.60;;;4.00;99.90;;;;;;4916940;29;20300;-75
2024/01/18 15:12:45;;;;;;;1.60;0.40;;;3.80;99.90;;;;;;4916609;29;20595;-76
2024/01/18 15:15:13;;;;;;;1.77;0.70;;;3.70;99.90;;;;;;4916523;29;20244;-74
2024/01/18 15:17:40;;;;;;;0.90;0.53;;;3.80;99.90;;;;;;4915909;29;20215;-74
2024/01/18 15:20:09;;;;;;;1.67;0.50;;;3.90;99.90;;;;;;4916318;29;20300;-75
2024/01/18 15:22:36;;;;;;;0.70;0.50;;;4.10;99.90;;;;;;4916802;29;20212;-75
2024/01/18 15:25:04;;;;;;;2.10;0.50;;;4.20;99.90;;;;;;4916286;29;20224;-75
2024/01/18 15:27:31;;;;;;;2.70;0.63;;;4.20;99.90;;;;;;4915932;29;20224;-76
2024/01/18 15:29:58;;;;;;;1.93;0.60;;;4.20;99.90;;;;;;4915895;29;20665;-76
2024/01/18 15:32:25;;;;;;;1.00;0.37;;;4.30;99.90;;;;;;4915017;29;20209;-74
2024/01/18 15:34:52;;;;;;;9.37;0.57;;;4.30;99.90;;;;;;4915583;29;20209;-75
2024/01/18 15:37:20;;;;;;;2.73;0.50;;;4.30;99.90;;;;;;4916198;29;20209;-75
2024/01/18 15:39:47;;;;;;;2.17;0.43;;;4.20;99.90;;;;;;4913649;29;20228;-75
2024/01/18 15:42:13;;;;;;;0.87;0.40;;;4.00;99.90;;;;;;4915802;29;20220;-76
2024/01/18 15:44:40;;;;;;;0.90;0.50;;;3.90;99.90;;;;;;4916181;29;20255;-75
2024/01/18 15:47:13;;;;;;;4.73;0.97;;;3.60;99.90;;;;;;4916022;29;20670;-75
2024/01/18 15:49:40;;;;;;;3.33;0.40;;;3.40;99.90;;;;;;4915972;29;20245;-75
2024/01/18 15:52:07;;;;;;;1.60;0.80;;;3.30;99.90;;;;;;4916108;29;20661;-75
2024/01/18 15:54:35;;;;;;;1.87;0.50;;;3.30;99.90;;;;;;4916182;29;20235;-76
2024/01/18 15:57:02;;;;;;;1.40;0.90;;;3.30;99.90;;;;;;4916018;29;20312;-76
2024/01/18 15:59:29;;;;;;;5.60;0.50;;;3.30;99.90;;;;;;4915811;29;20672;-75
2024/01/18 16:01:56;;;;;;;3.17;0.70;;;3.10;99.90;;;;;;4916378;29;20269;-76
2024/01/18 16:04:23;;;;;;;3.33;0.60;;;3.10;99.90;;;;;;4916336;29;20229;-75
2024/01/18 16:06:49;;;;;;;2.50;0.50;;;3.10;99.90;;;;;;4916393;29;20205;-74
2024/01/18 16:09:16;;;;;;;0.67;0.50;;;3.10;99.90;;;;;;4916125;29;20241;-75
2024/01/18 16:11:45;;;;;;;2.07;1.00;;;3.10;99.90;;;;;;4915950;29;20206;-76
2024/01/18 16:14:12;;;;;;;4.10;1.00;;;3.10;99.90;;;;;;4916237;29;20236;-75
2024/01/18 16:16:39;;;;;;;1.20;0.53;;;3.20;99.90;;;;;;4915913;29;20217;-75
2024/01/18 16:19:06;;;;;;;2.57;0.67;;;3.20;99.90;;;;;;4915852;29;20212;-74
2024/01/18 16:21:32;;;;;;;2.13;1.00;;;3.20;99.90;;;;;;4915789;29;20304;-74
2024/01/18 16:23:59;;;;;;;5.97;0.70;;;3.20;99.90;;;;;;4915568;29;20233;-74
2024/01/18 16:26:26;;;;;;;1.23;0.60;;;3.20;99.90;;;;;;4915673;29;20221;-75
2024/01/18 16:28:54;;;;;;;1.43;0.60;;;3.10;99.90;;;;;;4915928;29;20245;-73
2024/01/18 16:31:21;;;;;;;2.70;0.70;;;3.00;99.90;;;;;;4919431;29;20213;-73
2024/01/18 16:33:48;;;;;;;4.73;0.90;;;2.80;99.90;;;;;;4919760;29;20229;-74
2024/01/18 16:36:15;;;;;;;4.70;1.13;;;2.80;99.90;;;;;;4919369;29;20212;-74
2024/01/18 16:38:42;;;;;;;1.37;1.07;;;2.70;99.90;;;;;;4919271;29;20345;-75
2024/01/18 16:41:09;;;;;;;2.23;1.27;;;2.80;99.90;;;;;;4919072;29;20217;-74
2024/01/18 16:43:36;;;;;;;2.37;0.67;;;2.70;99.90;;;;;;4919040;29;20229;-74
2024/01/18 16:46:05;;;;;;;5.63;0.87;;;2.60;99.90;;;;;;4919170;29;20213;-75
2024/01/18 16:48:32;;;;;;;2.97;0.80;;;2.50;99.90;;;;;;4918965;29;20233;-74
2024/01/18 16:50:58;;;;;;;1.90;0.83;;;2.50;99.90;;;;;;4918983;29;20215;-73
2024/01/18 16:53:26;;;;;;;2.27;1.00;;;2.40;99.90;;;;;;4918872;29;20233;-74
2024/01/18 16:55:53;;;;;;;1.37;0.60;;;2.40;99.90;;;;;;4918921;29;20220;-74
2024/01/18 16:58:19;;;;;;;2.20;1.00;;;2.40;99.90;;;;;;4918955;29;20635;-73
2024/01/18 17:00:46;;;;;;;1.63;0.97;;;2.30;99.90;;;;;;4918017;29;20216;-74
2024/01/18 17:03:14;;;;;;;1.70;1.03;;;2.30;99.90;;;;;;4918863;29;20323;-73
2024/01/18 17:05:41;;;;;;;6.87;0.93;;;2.30;99.90;;;;;;4913474;29;20220;-74
2024/01/18 17:08:08;;;;;;;2.17;1.10;;;2.20;99.90;;;;;;4918364;29;20671;-74
2024/01/18 17:10:35;;;;;;;5.73;1.40;;;2.20;99.90;;;;;;4917877;29;20253;-74
2024/01/18 17:13:02;;;;;;;3.23;1.13;;;2.10;99.90;;;;;;4918258;29;20232;-74
2024/01/18 17:15:30;;;;;;;6.40;1.37;;;2.00;99.90;;;;;;4917876;29;20300;-74
2024/01/18 17:17:57;;;;;;;6.37;1.33;;;2.00;99.90;;;;;;4918097;29;20218;-74
2024/01/18 17:20:25;;;;;;;3.00;1.93;;;1.90;99.90;;;;;;4917675;29;20300;-74
2024/01/18 17:22:52;;;;;;;2.83;1.53;;;1.80;99.90;;;;;;4918201;29;20226;-75
2024/01/18 17:25:19;;;;;;;3.50;1.50;;;1.80;99.90;;;;;;4917985;29;20232;-75
2024/01/18 17:27:46;;;;;;;3.53;1.50;;;1.80;99.90;;;;;;4917900;29;20217;-75
2024/01/18 17:30:14;;;;;;;1.73;1.10;;;1.70;99.90;;;;;;4917672;29;20233;-75
2024/01/18 17:32:41;;;;;;;3.10;1.73;;;1.60;99.90;;;;;;4918221;29;20296;-74
2024/01/18 17:35:09;;;;;;;3.27;1.47;;;1.60;99.90;;;;;;4917710;29;20300;-74
2024/01/18 17:37:37;;;;;;;4.20;1.33;;;1.70;99.90;;;;;;4917953;29;20269;-74
2024/01/18 17:40:05;;;;;;;2.53;1.60;;;1.70;99.90;;;;;;4917525;29;20220;-74
2024/01/18 17:42:34;;;;;;;3.30;1.90;;;1.60;99.90;;;;;;4916532;29;20213;-74
2024/01/18 17:45:02;;;;;;;2.67;1.53;;;1.60;99.90;;;;;;4917130;29;20656;-74
2024/01/18 17:47:29;;;;;;;2.77;1.50;;;1.50;99.90;;;;;;4917796;29;20205;-74
2024/01/18 17:49:56;;;;;;;5.43;2.03;;;1.50;99.90;;;;;;4917037;29;20229;-73
2024/01/18 17:52:23;;;;;;;3.57;1.87;;;1.50;99.90;;;;;;4918053;29;20213;-76
2024/01/18 17:54:55;;;;;;;5.93;2.23;;;1.50;99.90;;;;;;4917707;29;20560;-74
2024/01/18 17:57:22;;;;;;;7.03;1.67;;;1.60;99.90;;;;;;4917920;29;20610;-76
2024/01/18 17:59:49;;;;;;;3.63;2.20;;;1.60;99.90;;;;;;4917042;29;20202;-76
2024/01/18 18:02:16;;;;;;;5.93;2.23;;;1.50;99.90;;;;;;4917451;29;20213;-74
2024/01/18 18:04:42;;;;;;;4.93;2.20;;;1.40;99.90;;;;;;4916901;29;20261;-74
2024/01/18 18:07:09;;;;;;;5.83;2.87;;;1.30;99.90;;;;;;4917634;29;20300;-74
2024/01/18 18:09:36;;;;;;;4.67;2.10;;;1.40;99.90;;;;;;4917495;29;20240;-74
2024/01/18 18:12:06;;;;;;;3.70;2.00;;;1.40;99.90;;;;;;4916679;29;20206;-74
2024/01/18 18:14:33;;;;;;;7.27;1.80;;;1.40;99.90;;;;;;4916256;29;20234;-75
2024/01/18 18:17:00;;;;;;;3.40;1.97;;;1.40;99.90;;;;;;4917208;29;20560;-75
2024/01/18 18:19:27;;;;;;;6.63;2.17;;;1.30;99.90;;;;;;4917370;29;20213;-75
2024/01/18 18:21:54;;;;;;;3.43;2.00;;;1.20;99.90;;;;;;4916698;29;20215;-75
2024/01/18 18:24:21;;;;;;;5.13;2.37;;;1.20;99.90;;;;;;4917402;29;20494;-74
2024/01/18 18:26:48;;;;;;;4.80;2.43;;;1.20;99.90;;;;;;4908908;29;20683;-74
2024/01/18 18:29:16;;;;;;;6.97;2.97;;;1.30;99.90;;;;;;4898244;29;20234;-75
2024/01/18 18:31:43;;;;;;;4.67;2.80;;;1.30;99.90;;;;;;4902422;29;20210;-75
2024/01/18 18:34:10;;;;;;;6.57;2.47;;;1.20;99.90;;;;;;4914707;29;20313;-75
2024/01/18 18:36:38;;;;;;;5.50;2.67;;;1.30;99.90;;;;;;4908418;29;20237;-75
2024/01/18 18:39:05;;;;;;;6.37;3.00;;;1.30;99.90;;;;;;4909576;29;20671;-75
2024/01/18 18:41:32;;;;;;;7.03;3.00;;;1.30;99.90;;;;;;4917157;29;20225;-75
2024/01/18 18:43:59;;;;;;;6.30;3.20;;;1.30;99.90;;;;;;4915627;29;20260;-75
2024/01/18 18:46:28;;;;;;;13.33;3.43;;;1.30;99.90;;;;;;4915871;29;20716;-75
2024/01/18 18:48:54;;;;;;;4.87;2.90;;;1.30;99.90;;;;;;4915176;29;20249;-74
2024/01/18 18:51:21;;;;;;;7.80;3.80;;;1.20;99.90;;;;;;4916038;29;20209;-75
2024/01/18 18:53:48;;;;;;;5.40;2.83;;;1.20;99.90;;;;;;4915097;29;20286;-75
2024/01/18 18:56:15;;;;;;;5.77;2.53;;;1.20;99.90;;;;;;4915708;29;20212;-75
2024/01/18 18:58:42;;;;;;;7.80;3.83;;;1.10;99.90;;;;;;4915900;29;20300;-75
2024/01/18 19:01:09;;;;;;;9.23;2.47;;;1.00;99.90;;;;;;4904705;29;20682;-74
2024/01/18 19:03:37;;;;;;;9.13;2.87;;;0.90;99.90;;;;;;4914946;29;20239;-76
2024/01/18 19:06:05;;;;;;;5.20;2.80;;;0.90;99.90;;;;;;4915530;29;20217;-75
2024/01/18 19:08:32;;;;;;;7.73;2.70;;;0.90;99.90;;;;;;4908789;29;20756;-75
2024/01/18 19:10:58;;;;;;;6.17;3.37;;;0.90;99.90;;;;;;4907029;29;20244;-77
2024/01/18 19:13:27;;;;;;;6.27;2.97;;;0.90;99.90;;;;;;4914207;29;20237;-75
2024/01/18 19:15:54;;;;;;;5.03;3.07;;;0.80;99.90;;;;;;4914715;29;20232;-75
2024/01/18 19:18:22;;;;;;;7.90;3.67;;;0.90;99.90;;;;;;4915210;29;20206;-75
2024/01/18 19:20:50;;;;;;;7.23;3.40;;;0.80;99.90;;;;;;4914863;29;20261;-75
2024/01/18 19:23:17;;;;;;;7.07;2.73;;;1.00;99.90;;;;;;4914823;29;20229;-75
2024/01/18 19:25:44;;;;;;;4.00;2.17;;;1.00;99.90;;;;;;4914614;29;20236;-76
2024/01/18 19:28:11;;;;;;;8.87;4.07;;;1.00;99.90;;;;;;4915590;29;20300;-76
2024/01/18 19:30:37;;;;;;;7.97;2.70;;;0.90;99.90;;;;;;4915246;29;20245;-75
2024/01/18 19:33:05;;;;;;;6.30;2.77;;;0.90;99.90;;;;;;4913669;29;20577;-76
2024/01/18 19:35:32;;;;;;;8.47;3.77;;;0.90;99.90;;;;;;4902237;29;20295;-76
2024/01/18 19:38:03;;;;;;;11.13;4.33;;;0.90;99.90;;;;;;4915629;29;20630;-76
2024/01/18 19:40:30;;;;;;;10.37;3.93;;;0.80;99.90;;;;;;4913799;29;20221;-75
2024/01/18 19:42:57;;;;;;;5.90;2.87;;;0.90;99.90;;;;;;4913471;29;20236;-75
2024/01/18 19:45:26;;;;;;;6.43;2.60;;;0.90;99.90;;;;;;4906497;29;20697;-76
2024/01/18 19:47:54;;;;;;;4.87;2.87;;;0.90;99.90;;;;;;4915191;29;20213;-75
2024/01/18 19:50:21;;;;;;;6.20;2.57;;;0.90;99.90;;;;;;4907274;29;20245;-76
2024/01/18 19:52:47;;;;;;;5.00;2.87;;;1.00;99.90;;;;;;4914795;29;20596;-76
2024/01/18 19:55:16;;;;;;;5.63;3.10;;;0.90;99.90;;;;;;4915517;29;20209;-75
2024/01/18 19:57:43;;;;;;;6.07;3.23;;;0.80;99.90;;;;;;4914035;29;20238;-76
2024/01/18 20:00:12;;;;;;;6.10;2.73;;;0.80;99.90;;;;;;4914167;29;20572;-75
2024/01/18 20:02:38;;;;;;;7.77;3.43;;;0.70;99.90;;;;;;4915894;29;20214;-76
2024/01/18 20:05:06;;;;;;;7.63;3.30;;;0.70;99.90;;;;;;4918752;29;20296;-75
2024/01/18 20:07:34;;;;;;;5.90;2.87;;;0.80;99.90;;;;;;4919521;29;20202;-75
2024/01/18 20:10:01;;;;;;;8.10;4.00;;;0.80;99.90;;;;;;4921610;29;20255;-76
2024/01/18 20:12:29;;;;;;;4.43;3.13;;;0.70;99.90;;;;;;4922180;29;20573;-76
2024/01/18 20:14:56;;;;;;;14.57;3.20;;;0.70;99.90;;;;;;4920852;29;20585;-77
2024/01/18 20:17:23;;;;;;;7.40;3.30;;;0.60;99.90;;;;;;4920009;29;20225;-76
2024/01/18 20:19:50;;;;;;;10.67;3.17;;;0.60;99.90;;;;;;4918432;29;20768;-76
2024/01/18 20:22:17;;;;;;;10.30;3.77;;;0.50;99.90;;;;;;4918883;29;20593;-76
2024/01/18 20:24:44;;;;;;;9.00;3.17;;;0.50;99.90;;;;;;4918994;29;20756;-76
2024/01/18 20:27:11;;;;;;;10.13;3.27;;;0.50;99.90;;;;;;4918544;29;20214;-75
2024/01/18 20:29:39;;;;;;;8.03;3.73;;;0.60;99.90;;;;;;4918675;29;20240;-76
2024/01/18 20:32:07;;;;;;;6.43;3.30;;;0.70;99.90;;;;;;4906722;29;20688;-75
2024/01/18 20:34:34;;;;;;;7.57;3.43;;;0.70;99.90;;;;;;4912963;29;20257;-77
2024/01/18 20:37:01;;;;;;;7.73;3.40;;;0.60;99.90;;;;;;4912770;29;20216;-76
2024/01/18 20:39:28;;;;;;;7.07;3.67;;;0.60;99.90;;;;;;4918734;29;20224;-75
2024/01/18 20:41:55;;;;;;;8.00;3.23;;;0.60;99.90;;;;;;4918500;29;20205;-75
2024/01/18 20:44:22;;;;;;;8.03;3.93;;;0.60;99.90;;;;;;4906760;29;20230;-77
2024/01/18 20:46:50;;;;;;;7.70;3.07;;;0.60;99.90;;;;;;4919060;29;20684;-77
2024/01/18 20:49:17;;;;;;;5.23;2.93;;;0.70;99.90;;;;;;4918906;29;20301;-76
2024/01/18 20:51:45;;;;;;;5.77;2.67;;;0.60;99.90;;;;;;4918783;29;20213;-76
2024/01/18 20:54:13;;;;;;;7.30;3.13;;;0.60;99.90;;;;;;4918707;29;20854;-75
2024/01/18 20:56:41;;;;;;;5.23;2.27;;;0.60;99.90;;;;;;4918522;29;20264;-75
2024/01/18 20:59:07;;;;;;;6.83;2.43;;;0.60;99.90;;;;;;4918609;29;20756;-76
2024/01/18 21:01:34;;;;;;;6.13;2.93;;;0.50;99.90;;;;;;4918109;29;20222;-76
2024/01/18 21:04:02;;;;;;;6.90;3.00;;;0.50;99.90;;;;;;4918434;29;20701;-76
2024/01/18 21:06:29;;;;;;;5.20;3.60;;;0.60;99.90;;;;;;4918535;29;20298;-77
2024/01/18 21:08:56;;;;;;;5.83;2.83;;;0.60;99.90;;;;;;4918586;29;20768;-77
2024/01/18 21:11:23;;;;;;;5.53;2.87;;;0.70;99.90;;;;;;4918219;29;20252;-76
2024/01/18 21:13:50;;;;;;;7.60;2.53;;;0.60;99.90;;;;;;4917954;29;20253;-75
2024/01/18 21:16:17;;;;;;;5.07;2.53;;;0.60;99.90;;;;;;4917035;29;20210;-75
2024/01/18 21:18:46;;;;;;;4.70;2.37;;;0.60;99.90;;;;;;4918517;29;20296;-76
2024/01/18 21:21:15;;;;;;;7.53;3.27;;;0.50;99.90;;;;;;4918262;29;20301;-77
2024/01/18 21:23:41;;;;;;;4.77;2.73;;;0.50;99.90;;;;;;4919019;29;20236;-77
2024/01/18 21:26:08;;;;;;;5.80;2.70;;;0.50;99.90;;;;;;4918043;29;20391;-76
2024/01/18 21:28:35;;;;;;;6.70;2.80;;;0.50;99.90;;;;;;4918127;29;20213;-76
2024/01/18 21:31:07;;;;;;;4.07;2.40;;;0.40;99.90;;;;;;4917765;29;20237;-75
2024/01/18 21:33:34;;;;;;;5.10;2.40;;;0.30;99.90;;;;;;4912251;29;20324;-75
2024/01/18 21:36:01;;;;;;;4.77;3.03;;;0.30;99.90;;;;;;4903818;29;20210;-75
2024/01/18 21:38:29;;;;;;;6.87;3.10;;;0.40;99.90;;;;;;4917892;29;20209;-75
2024/01/18 21:40:56;;;;;;;5.33;3.10;;;0.40;99.90;;;;;;4917609;29;20641;-76
2024/01/18 21:43:23;;;;;;;5.17;2.23;;;0.30;99.90;;;;;;4917655;29;20316;-75
2024/01/18 21:45:50;;;;;;;6.80;3.00;;;0.40;99.90;;;;;;4917943;29;20209;-76
2024/01/18 21:48:16;;;;;;;3.90;2.20;;;0.30;99.90;;;;;;4917883;29;20300;-76
2024/01/18 21:50:43;;;;;;;5.07;2.93;;;0.30;99.90;;;;;;4917323;29;20233;-76
2024/01/18 21:53:10;;;;;;;7.07;2.33;;;0.40;99.90;;;;;;4916940;29;20655;-75
2024/01/18 21:55:39;;;;;;;9.27;3.20;;;0.40;99.90;;;;;;4916649;29;20288;-75
2024/01/18 21:58:06;;;;;;;5.13;2.70;;;0.40;99.90;;;;;;4916385;29;20241;-75
2024/01/18 22:00:33;;;;;;;3.97;2.10;;;0.50;99.90;;;;;;4917887;29;20231;-75
